Armadores I — SY8463 — position and weather

sailwx.info

Track history (hours):
 
Tides and Currents Weather Stations Pressure Air Temp Water Temp Dewpoint Dewpoint Depression Visibility Wind Speed Wind Dir Waves Ship Positions

Armadores I

Last reported at 2015-Apr-18 02:33 UTC. Time now 2015-Apr-18 03:21 UTC.
Position N 37°28' E 025°20'.

Length 32 m; draft 5.3 m.

Type: Tug. MMSI: 240694000.

Date/timePositionNaut miles runAvg speedWind from/ knotsBaromVisibWave heightAir tempDewpointWater temp
2015-Apr-18 02:33N 37°28' E 025°20'0 0.0
2015-Apr-18 01:32N 37°28' E 025°20'0 0.0
2015-Apr-18 00:27N 37°28' E 025°20'0 0.0
2015-Apr-17 23:33N 37°28' E 025°20'0 0.0
2015-Apr-17 22:34N 37°28' E 025°20'0 0.0
2015-Apr-17 21:30N 37°28' E 025°20'0 0.0
2015-Apr-17 20:32N 37°28' E 025°20'0 0.0
2015-Apr-17 19:33N 37°28' E 025°20'0 0.0
2015-Apr-17 18:33N 37°28' E 025°20'0 0.0
2015-Apr-17 17:33N 37°28' E 025°20'0 0.0
2015-Apr-17 16:32N 37°28' E 025°20'0 0.0
2015-Apr-17 15:33N 37°28' E 025°20'0 0.1
2015-Apr-17 14:29N 37°28' E 025°20'0 0.1
2015-Apr-17 13:33N 37°28' E 025°20'0 0.0
2015-Apr-17 12:29N 37°28' E 025°20'0 0.0
2015-Apr-17 11:33N 37°28' E 025°20'0 0.0
2015-Apr-17 10:30N 37°28' E 025°20'0 0.0
2015-Apr-17 09:30N 37°28' E 025°20'0 0.0
2015-Apr-17 08:30N 37°28' E 025°20'0 0.0
2015-Apr-17 07:25N 37°28' E 025°20'0 0.0
2015-Apr-17 06:28N 37°28' E 025°20'0 0.0
2015-Apr-17 05:16N 37°28' E 025°20'0 0.0
2015-Apr-17 04:31N 37°28' E 025°20'0 0.0
2015-Apr-17 02:09N 37°28' E 025°20'0 0.0
2015-Apr-17 01:33N 37°28' E 025°20'0 0.0
2015-Apr-17 00:33N 37°28' E 025°20'0 0.0
2015-Apr-16 23:33N 37°28' E 025°20'0 0.0
2015-Apr-16 22:33N 37°28' E 025°20'0 0.0
2015-Apr-16 21:33N 37°28' E 025°20'0 0.0
2015-Apr-16 20:33N 37°28' E 025°20'0 0.0
2015-Apr-16 19:33N 37°28' E 025°20'0 0.0
2015-Apr-16 18:33N 37°28' E 025°20'0 0.0
2015-Apr-16 17:23N 37°28' E 025°20'0 0.0
2015-Apr-16 16:31N 37°28' E 025°20'0 0.0
2015-Apr-16 15:32N 37°28' E 025°20'0 0.1
2015-Apr-16 14:33N 37°28' E 025°20'0 0.1
2015-Apr-16 13:32N 37°28' E 025°20'0 0.0
2015-Apr-16 12:33N 37°28' E 025°20'0 0.0
2015-Apr-16 11:33N 37°28' E 025°20'8 8.4
2015-Apr-16 10:33N 37°27' E 025°09'9 9.2
2015-Apr-16 09:33N 37°26' E 024°57'1 0.7
2015-Apr-16 08:30N 37°26' E 024°57'0 0.0
2015-Apr-16 07:32N 37°26' E 024°57'1 0.5
2015-Apr-16 06:31N 37°26' E 024°57'0 0.0
2015-Apr-16 05:33N 37°26' E 024°57'2 1.9
2015-Apr-16 04:33N 37°27' E 024°59'9 9.6
2015-Apr-16 03:33N 37°27' E 025°11'7 6.9
2015-Apr-16 02:33N 37°28' E 025°20'0 0.0
2015-Apr-16 01:33N 37°28' E 025°20'0 0.0
2015-Apr-16 00:32N 37°28' E 025°20'0 0.0
2015-Apr-15 23:33N 37°28' E 025°20'0 0.0
2015-Apr-15 22:32N 37°28' E 025°20'0 0.0
2015-Apr-15 21:33N 37°28' E 025°20'0 0.0
2015-Apr-15 20:33N 37°28' E 025°20'0 0.0
2015-Apr-15 19:33N 37°28' E 025°20'0 0.0
2015-Apr-15 18:33N 37°28' E 025°20'0 0.0
2015-Apr-15 17:33N 37°28' E 025°20'0 0.0
2015-Apr-15 16:33N 37°28' E 025°20'0 0.0
2015-Apr-15 15:33N 37°28' E 025°20'0 0.0
2015-Apr-15 14:33N 37°28' E 025°20'0 0.0
2015-Apr-15 13:33N 37°28' E 025°20'0 0.0
2015-Apr-15 12:33N 37°28' E 025°20'0 0.0
2015-Apr-15 11:33N 37°28' E 025°20'0 0.0
2015-Apr-15 10:33N 37°28' E 025°20'0 0.0
2015-Apr-15 09:33N 37°28' E 025°20'0 0.0
2015-Apr-15 08:33N 37°28' E 025°20'0 0.0
2015-Apr-15 07:33N 37°28' E 025°20'0 0.0
2015-Apr-15 06:33N 37°28' E 025°20'0 0.0
2015-Apr-15 05:33N 37°28' E 025°20'0 0.0
2015-Apr-15 04:33N 37°28' E 025°20'0 0.0
2015-Apr-15 03:33N 37°28' E 025°20'0 0.0
2015-Apr-15 02:33N 37°28' E 025°20'0 0.0
2015-Apr-15 01:33N 37°28' E 025°20'0 0.0
2015-Apr-15 00:33N 37°28' E 025°20'0 0.0
2015-Apr-14 23:33N 37°28' E 025°20'0 0.0
2015-Apr-14 22:34N 37°28' E 025°20'0 0.0
2015-Apr-14 21:32N 37°28' E 025°20'0 0.0
2015-Apr-14 20:33N 37°28' E 025°20'0 0.0
2015-Apr-14 19:32N 37°28' E 025°20'0 0.0
2015-Apr-14 18:33N 37°28' E 025°20'0 0.0
2015-Apr-14 17:32N 37°28' E 025°20'0 0.0
2015-Apr-14 16:32N 37°28' E 025°20'0 0.0
2015-Apr-14 15:32N 37°28' E 025°20'0 0.0
2015-Apr-14 14:33N 37°28' E 025°20'0 0.0
2015-Apr-14 13:33N 37°28' E 025°20'0 0.0
2015-Apr-14 12:33N 37°28' E 025°20'0 0.2
2015-Apr-14 11:33N 37°28' E 025°19'0 0.2
2015-Apr-14 10:33N 37°28' E 025°20'0 0.0
2015-Apr-14 09:33N 37°28' E 025°20'0 0.0
2015-Apr-14 08:33N 37°28' E 025°20'0 0.0
2015-Apr-14 07:33N 37°28' E 025°20'0 0.0
2015-Apr-14 06:33N 37°28' E 025°20'0 0.0
2015-Apr-14 05:33N 37°28' E 025°20'0 0.0
2015-Apr-14 04:33N 37°28' E 025°20'0 0.0
2015-Apr-14 03:32N 37°28' E 025°20'0 0.0
2015-Apr-14 02:33N 37°28' E 025°20'0 0.0
2015-Apr-14 01:33N 37°28' E 025°20'0 0.0
2015-Apr-14 00:33N 37°28' E 025°20'0 0.0
2015-Apr-13 23:33N 37°28' E 025°20'0 0.0
2015-Apr-13 22:33N 37°28' E 025°20'0 0.0
2015-Apr-13 21:34N 37°28' E 025°20'0 0.0
2015-Apr-13 20:33N 37°28' E 025°20'0 0.0
2015-Apr-13 19:33N 37°28' E 025°20'0 0.0
2015-Apr-13 18:33N 37°28' E 025°20'0 0.0
2015-Apr-13 17:33N 37°28' E 025°20'0 0.0
2015-Apr-13 16:33N 37°28' E 025°20'0 0.1
2015-Apr-13 15:33N 37°28' E 025°19'0 0.2
2015-Apr-13 14:33N 37°28' E 025°19'0 0.3
2015-Apr-13 13:33N 37°28' E 025°20'0 0.0
2015-Apr-13 12:33N 37°28' E 025°20'0 0.0
2015-Apr-13 11:33N 37°28' E 025°20'0 0.0
2015-Apr-13 10:32N 37°28' E 025°20'0 0.0
2015-Apr-13 09:33N 37°28' E 025°20'0 0.0
2015-Apr-13 08:33N 37°28' E 025°20'0 0.0
2015-Apr-13 07:33N 37°28' E 025°20'0 0.0
2015-Apr-13 06:33N 37°28' E 025°20'0 0.0
2015-Apr-13 05:33N 37°28' E 025°20'0 0.0
2015-Apr-13 04:33N 37°28' E 025°20'0 0.0
2015-Apr-13 03:32N 37°28' E 025°20'0 0.0
2015-Apr-13 02:32N 37°28' E 025°20'0 0.0
2015-Apr-13 01:33N 37°28' E 025°20'0 0.0
2015-Apr-13 00:33N 37°28' E 025°20'0 0.0
2015-Apr-12 23:33N 37°28' E 025°20'0 0.0
2015-Apr-12 22:33N 37°28' E 025°20'0 0.0
2015-Apr-12 21:33N 37°28' E 025°20'0 0.0
2015-Apr-12 20:33N 37°28' E 025°20'0 0.0
2015-Apr-12 19:33N 37°28' E 025°20'0 0.0
2015-Apr-12 18:33N 37°28' E 025°20'0 0.0
2015-Apr-12 17:33N 37°28' E 025°20'0 0.0
2015-Apr-12 16:33N 37°28' E 025°20'0 0.0
2015-Apr-12 15:33N 37°28' E 025°20'0 0.0
2015-Apr-12 14:33N 37°28' E 025°20'0 0.0
2015-Apr-12 13:33N 37°28' E 025°20'0 0.0
2015-Apr-12 12:33N 37°28' E 025°20'0 0.0
2015-Apr-12 11:33N 37°28' E 025°20'0 0.0
2015-Apr-12 10:33N 37°28' E 025°20'0 0.0
2015-Apr-12 09:33N 37°28' E 025°20'0 0.0
2015-Apr-12 08:33N 37°28' E 025°20'0 0.0
2015-Apr-12 07:33N 37°28' E 025°20'0 0.0
2015-Apr-12 06:33N 37°28' E 025°20'0 0.0
2015-Apr-12 05:33N 37°28' E 025°20'0 0.0
2015-Apr-12 04:33N 37°28' E 025°20'0 0.0
2015-Apr-12 03:33N 37°28' E 025°20'0 0.0
2015-Apr-12 02:33N 37°28' E 025°20'0 0.0
2015-Apr-12 01:33N 37°28' E 025°20'0 0.0
2015-Apr-12 00:33N 37°28' E 025°20'0 0.0
2015-Apr-11 23:33N 37°28' E 025°20'0 0.0
2015-Apr-11 22:33N 37°28' E 025°20'0 0.0
2015-Apr-11 21:33N 37°28' E 025°20'0 0.0
2015-Apr-11 20:33N 37°28' E 025°20'0 0.0
2015-Apr-11 19:33N 37°28' E 025°20'0 0.0
2015-Apr-11 18:33N 37°28' E 025°20'0 0.0
2015-Apr-11 17:33N 37°28' E 025°20'0 0.0
2015-Apr-11 16:33N 37°28' E 025°20'0 0.0
2015-Apr-11 15:33N 37°28' E 025°20'0 0.0
2015-Apr-11 14:33N 37°28' E 025°20'0 0.0
2015-Apr-11 13:34N 37°28' E 025°20'0 0.0
2015-Apr-11 12:33N 37°28' E 025°20'0 0.0
2015-Apr-11 11:33N 37°28' E 025°20'0 0.0
2015-Apr-11 10:33N 37°28' E 025°20'0 0.0
2015-Apr-11 09:33N 37°28' E 025°20'0 0.0
2015-Apr-11 08:34N 37°28' E 025°20'0 0.0
2015-Apr-11 07:34N 37°28' E 025°20'0 0.0
2015-Apr-11 06:33N 37°28' E 025°20'0 0.0
2015-Apr-11 05:34N 37°28' E 025°20'0 0.0
2015-Apr-11 04:33N 37°28' E 025°20'0 0.0
2015-Apr-11 03:33N 37°28' E 025°20'0 0.0
2015-Apr-11 02:33N 37°28' E 025°20'0 0.0
2015-Apr-11 01:33N 37°28' E 025°20'0 0.0
2015-Apr-11 00:33N 37°28' E 025°20'0 0.0
2015-Apr-10 23:33N 37°28' E 025°20'0 0.0
2015-Apr-10 22:33N 37°28' E 025°20'0 0.0
2015-Apr-10 21:32N 37°28' E 025°20'0 0.0
2015-Apr-10 20:33N 37°28' E 025°20'0 0.0
2015-Apr-10 19:33N 37°28' E 025°20'0 0.0
2015-Apr-10 18:32N 37°28' E 025°20'0 0.0
2015-Apr-10 17:33N 37°28' E 025°20'0 0.0
2015-Apr-10 16:33N 37°28' E 025°20'0 0.0
2015-Apr-10 15:33N 37°28' E 025°20'0 0.0
2015-Apr-10 14:33N 37°28' E 025°20'0 0.0
2015-Apr-10 13:33N 37°28' E 025°20'0 0.0
2015-Apr-10 12:33N 37°28' E 025°20'0 0.0
2015-Apr-10 11:33N 37°28' E 025°20'0 0.0
2015-Apr-10 10:33N 37°28' E 025°20'0 0.0
2015-Apr-10 09:33N 37°28' E 025°20'0 0.0
2015-Apr-10 08:33N 37°28' E 025°20'0 0.0
2015-Apr-10 07:33N 37°28' E 025°20'0 0.0
2015-Apr-10 06:33N 37°28' E 025°20'0 0.0
2015-Apr-10 05:33N 37°28' E 025°20'0 0.0
2015-Apr-10 04:33N 37°28' E 025°20'0 0.0
2015-Apr-10 03:33N 37°28' E 025°20'0 0.0
2015-Apr-10 02:33N 37°28' E 025°20'0 0.0
2015-Apr-10 01:33N 37°28' E 025°20'0 0.0
2015-Apr-10 00:33N 37°28' E 025°20'0 0.0
2015-Apr-09 23:33N 37°28' E 025°20'0 0.0
2015-Apr-09 22:33N 37°28' E 025°20'0 0.0
2015-Apr-09 21:33N 37°28' E 025°20'0 0.0
2015-Apr-09 20:32N 37°28' E 025°20'0 0.0
2015-Apr-09 19:33N 37°28' E 025°20'0 0.0
2015-Apr-09 18:33N 37°28' E 025°20'0 0.0
2015-Apr-09 17:33N 37°28' E 025°20'0 0.0
2015-Apr-09 16:33N 37°28' E 025°20'0 0.0
2015-Apr-09 15:33N 37°28' E 025°20'0 0.0
2015-Apr-09 14:33N 37°28' E 025°20'0 0.0
2015-Apr-09 13:33N 37°28' E 025°20'0 0.0
2015-Apr-09 12:33N 37°28' E 025°20'0 0.0
2015-Apr-09 11:33N 37°28' E 025°20'0 0.0
2015-Apr-09 10:33N 37°28' E 025°20'0 0.0
2015-Apr-09 09:33N 37°28' E 025°20'0 0.0
2015-Apr-09 08:33N 37°28' E 025°20'5 4.7
2015-Apr-09 07:33N 37°23' E 025°17'3 2.6
2015-Apr-09 06:33N 37°22' E 025°20'5 4.9
2015-Apr-09 05:33N 37°21' E 025°14'6 6.2
2015-Apr-09 04:33N 37°27' E 025°13'5 5.5
2015-Apr-09 03:33N 37°28' E 025°20'0 0.0
2015-Apr-09 02:33N 37°28' E 025°20'0 0.0
2015-Apr-09 01:33N 37°28' E 025°20'0 0.0
2015-Apr-09 00:34N 37°28' E 025°20'0 0.0
2015-Apr-08 23:34N 37°28' E 025°20'0 0.0
2015-Apr-08 22:34N 37°28' E 025°20'0 0.0
2015-Apr-08 21:32N 37°28' E 025°20'0 0.0
2015-Apr-08 20:34N 37°28' E 025°20'0 0.0
2015-Apr-08 19:33N 37°28' E 025°20'0 0.0
2015-Apr-08 18:34N 37°28' E 025°20'0 0.0
2015-Apr-08 17:34N 37°28' E 025°20'0 0.0
2015-Apr-08 16:34N 37°28' E 025°20'0 0.0
2015-Apr-08 15:34N 37°28' E 025°20'0 0.0
2015-Apr-08 14:34N 37°28' E 025°20'0 0.0
2015-Apr-08 13:34N 37°28' E 025°20'0 0.0
2015-Apr-08 12:34N 37°28' E 025°20'0 0.0
2015-Apr-08 11:34N 37°28' E 025°20'0 0.0
2015-Apr-08 10:33N 37°28' E 025°20'0 0.0
2015-Apr-08 09:33N 37°28' E 025°20'0 0.0
2015-Apr-08 08:33N 37°28' E 025°20'0 0.0
2015-Apr-08 07:33N 37°28' E 025°20'0 0.0
2015-Apr-08 06:33N 37°28' E 025°20'0 0.0
2015-Apr-08 05:33N 37°28' E 025°20'0 0.0
2015-Apr-08 04:33N 37°28' E 025°20'0 0.0
2015-Apr-08 03:33N 37°28' E 025°20'0 0.0
2015-Apr-08 02:33N 37°28' E 025°20'  
Track history (hours):
 
Tides and Currents Weather Stations Pressure Air Temp Water Temp Dewpoint Dewpoint Depression Visibility Wind Speed Wind Dir Waves Ship Positions

Armadores I

Last reported at 2015-Apr-18 02:33 UTC. Time now 2015-Apr-18 03:21 UTC.
Position N 37°28' E 025°20'.

Length 32 m; draft 5.3 m.

Type: Tug. MMSI: 240694000.

Date/timePositionNaut miles runAvg speedWind from/ knotsBaromVisibWave heightAir tempDewpointWater temp
2015-Apr-18 02:33N 37°28' E 025°20'0 0.0
2015-Apr-18 01:32N 37°28' E 025°20'0 0.0
2015-Apr-18 00:27N 37°28' E 025°20'0 0.0
2015-Apr-17 23:33N 37°28' E 025°20'0 0.0
2015-Apr-17 22:34N 37°28' E 025°20'0 0.0
2015-Apr-17 21:30N 37°28' E 025°20'0 0.0
2015-Apr-17 20:32N 37°28' E 025°20'0 0.0
2015-Apr-17 19:33N 37°28' E 025°20'0 0.0
2015-Apr-17 18:33N 37°28' E 025°20'0 0.0
2015-Apr-17 17:33N 37°28' E 025°20'0 0.0
2015-Apr-17 16:32N 37°28' E 025°20'0 0.0
2015-Apr-17 15:33N 37°28' E 025°20'0 0.1
2015-Apr-17 14:29N 37°28' E 025°20'0 0.1
2015-Apr-17 13:33N 37°28' E 025°20'0 0.0
2015-Apr-17 12:29N 37°28' E 025°20'0 0.0
2015-Apr-17 11:33N 37°28' E 025°20'0 0.0
2015-Apr-17 10:30N 37°28' E 025°20'0 0.0
2015-Apr-17 09:30N 37°28' E 025°20'0 0.0
2015-Apr-17 08:30N 37°28' E 025°20'0 0.0
2015-Apr-17 07:25N 37°28' E 025°20'0 0.0
2015-Apr-17 06:28N 37°28' E 025°20'0 0.0
2015-Apr-17 05:16N 37°28' E 025°20'0 0.0
2015-Apr-17 04:31N 37°28' E 025°20'0 0.0
2015-Apr-17 02:09N 37°28' E 025°20'0 0.0
2015-Apr-17 01:33N 37°28' E 025°20'0 0.0
2015-Apr-17 00:33N 37°28' E 025°20'0 0.0
2015-Apr-16 23:33N 37°28' E 025°20'0 0.0
2015-Apr-16 22:33N 37°28' E 025°20'0 0.0
2015-Apr-16 21:33N 37°28' E 025°20'0 0.0
2015-Apr-16 20:33N 37°28' E 025°20'0 0.0
2015-Apr-16 19:33N 37°28' E 025°20'0 0.0
2015-Apr-16 18:33N 37°28' E 025°20'0 0.0
2015-Apr-16 17:23N 37°28' E 025°20'0 0.0
2015-Apr-16 16:31N 37°28' E 025°20'0 0.0
2015-Apr-16 15:32N 37°28' E 025°20'0 0.1
2015-Apr-16 14:33N 37°28' E 025°20'0 0.1
2015-Apr-16 13:32N 37°28' E 025°20'0 0.0
2015-Apr-16 12:33N 37°28' E 025°20'0 0.0
2015-Apr-16 11:33N 37°28' E 025°20'8 8.4
2015-Apr-16 10:33N 37°27' E 025°09'9 9.2
2015-Apr-16 09:33N 37°26' E 024°57'1 0.7
2015-Apr-16 08:30N 37°26' E 024°57'0 0.0
2015-Apr-16 07:32N 37°26' E 024°57'1 0.5
2015-Apr-16 06:31N 37°26' E 024°57'0 0.0
2015-Apr-16 05:33N 37°26' E 024°57'2 1.9
2015-Apr-16 04:33N 37°27' E 024°59'9 9.6
2015-Apr-16 03:33N 37°27' E 025°11'7 6.9
2015-Apr-16 02:33N 37°28' E 025°20'0 0.0
2015-Apr-16 01:33N 37°28' E 025°20'0 0.0
2015-Apr-16 00:32N 37°28' E 025°20'0 0.0
2015-Apr-15 23:33N 37°28' E 025°20'0 0.0
2015-Apr-15 22:32N 37°28' E 025°20'0 0.0
2015-Apr-15 21:33N 37°28' E 025°20'0 0.0
2015-Apr-15 20:33N 37°28' E 025°20'0 0.0
2015-Apr-15 19:33N 37°28' E 025°20'0 0.0
2015-Apr-15 18:33N 37°28' E 025°20'0 0.0
2015-Apr-15 17:33N 37°28' E 025°20'0 0.0
2015-Apr-15 16:33N 37°28' E 025°20'0 0.0
2015-Apr-15 15:33N 37°28' E 025°20'0 0.0
2015-Apr-15 14:33N 37°28' E 025°20'0 0.0
2015-Apr-15 13:33N 37°28' E 025°20'0 0.0
2015-Apr-15 12:33N 37°28' E 025°20'0 0.0
2015-Apr-15 11:33N 37°28' E 025°20'0 0.0
2015-Apr-15 10:33N 37°28' E 025°20'0 0.0
2015-Apr-15 09:33N 37°28' E 025°20'0 0.0
2015-Apr-15 08:33N 37°28' E 025°20'0 0.0
2015-Apr-15 07:33N 37°28' E 025°20'0 0.0
2015-Apr-15 06:33N 37°28' E 025°20'0 0.0
2015-Apr-15 05:33N 37°28' E 025°20'0 0.0
2015-Apr-15 04:33N 37°28' E 025°20'0 0.0
2015-Apr-15 03:33N 37°28' E 025°20'0 0.0
2015-Apr-15 02:33N 37°28' E 025°20'0 0.0
2015-Apr-15 01:33N 37°28' E 025°20'0 0.0
2015-Apr-15 00:33N 37°28' E 025°20'0 0.0
2015-Apr-14 23:33N 37°28' E 025°20'0 0.0
2015-Apr-14 22:34N 37°28' E 025°20'0 0.0
2015-Apr-14 21:32N 37°28' E 025°20'0 0.0
2015-Apr-14 20:33N 37°28' E 025°20'0 0.0
2015-Apr-14 19:32N 37°28' E 025°20'0 0.0
2015-Apr-14 18:33N 37°28' E 025°20'0 0.0
2015-Apr-14 17:32N 37°28' E 025°20'0 0.0
2015-Apr-14 16:32N 37°28' E 025°20'0 0.0
2015-Apr-14 15:32N 37°28' E 025°20'0 0.0
2015-Apr-14 14:33N 37°28' E 025°20'0 0.0
2015-Apr-14 13:33N 37°28' E 025°20'0 0.0
2015-Apr-14 12:33N 37°28' E 025°20'0 0.2
2015-Apr-14 11:33N 37°28' E 025°19'0 0.2
2015-Apr-14 10:33N 37°28' E 025°20'0 0.0
2015-Apr-14 09:33N 37°28' E 025°20'0 0.0
2015-Apr-14 08:33N 37°28' E 025°20'0 0.0
2015-Apr-14 07:33N 37°28' E 025°20'0 0.0
2015-Apr-14 06:33N 37°28' E 025°20'0 0.0
2015-Apr-14 05:33N 37°28' E 025°20'0 0.0
2015-Apr-14 04:33N 37°28' E 025°20'0 0.0
2015-Apr-14 03:32N 37°28' E 025°20'0 0.0
2015-Apr-14 02:33N 37°28' E 025°20'0 0.0
2015-Apr-14 01:33N 37°28' E 025°20'0 0.0
2015-Apr-14 00:33N 37°28' E 025°20'0 0.0
2015-Apr-13 23:33N 37°28' E 025°20'0 0.0
2015-Apr-13 22:33N 37°28' E 025°20'0 0.0
2015-Apr-13 21:34N 37°28' E 025°20'0 0.0
2015-Apr-13 20:33N 37°28' E 025°20'0 0.0
2015-Apr-13 19:33N 37°28' E 025°20'0 0.0
2015-Apr-13 18:33N 37°28' E 025°20'0 0.0
2015-Apr-13 17:33N 37°28' E 025°20'0 0.0
2015-Apr-13 16:33N 37°28' E 025°20'0 0.1
2015-Apr-13 15:33N 37°28' E 025°19'0 0.2
2015-Apr-13 14:33N 37°28' E 025°19'0 0.3
2015-Apr-13 13:33N 37°28' E 025°20'0 0.0
2015-Apr-13 12:33N 37°28' E 025°20'0 0.0
2015-Apr-13 11:33N 37°28' E 025°20'0 0.0
2015-Apr-13 10:32N 37°28' E 025°20'0 0.0
2015-Apr-13 09:33N 37°28' E 025°20'0 0.0
2015-Apr-13 08:33N 37°28' E 025°20'0 0.0
2015-Apr-13 07:33N 37°28' E 025°20'0 0.0
2015-Apr-13 06:33N 37°28' E 025°20'0 0.0
2015-Apr-13 05:33N 37°28' E 025°20'0 0.0
2015-Apr-13 04:33N 37°28' E 025°20'0 0.0
2015-Apr-13 03:32N 37°28' E 025°20'0 0.0
2015-Apr-13 02:32N 37°28' E 025°20'0 0.0
2015-Apr-13 01:33N 37°28' E 025°20'0 0.0
2015-Apr-13 00:33N 37°28' E 025°20'0 0.0
2015-Apr-12 23:33N 37°28' E 025°20'0 0.0
2015-Apr-12 22:33N 37°28' E 025°20'0 0.0
2015-Apr-12 21:33N 37°28' E 025°20'0 0.0
2015-Apr-12 20:33N 37°28' E 025°20'0 0.0
2015-Apr-12 19:33N 37°28' E 025°20'0 0.0
2015-Apr-12 18:33N 37°28' E 025°20'0 0.0
2015-Apr-12 17:33N 37°28' E 025°20'0 0.0
2015-Apr-12 16:33N 37°28' E 025°20'0 0.0
2015-Apr-12 15:33N 37°28' E 025°20'0 0.0
2015-Apr-12 14:33N 37°28' E 025°20'0 0.0
2015-Apr-12 13:33N 37°28' E 025°20'0 0.0
2015-Apr-12 12:33N 37°28' E 025°20'0 0.0
2015-Apr-12 11:33N 37°28' E 025°20'0 0.0
2015-Apr-12 10:33N 37°28' E 025°20'0 0.0
2015-Apr-12 09:33N 37°28' E 025°20'0 0.0
2015-Apr-12 08:33N 37°28' E 025°20'0 0.0
2015-Apr-12 07:33N 37°28' E 025°20'0 0.0
2015-Apr-12 06:33N 37°28' E 025°20'0 0.0
2015-Apr-12 05:33N 37°28' E 025°20'0 0.0
2015-Apr-12 04:33N 37°28' E 025°20'0 0.0
2015-Apr-12 03:33N 37°28' E 025°20'0 0.0
2015-Apr-12 02:33N 37°28' E 025°20'0 0.0
2015-Apr-12 01:33N 37°28' E 025°20'0 0.0
2015-Apr-12 00:33N 37°28' E 025°20'0 0.0
2015-Apr-11 23:33N 37°28' E 025°20'0 0.0
2015-Apr-11 22:33N 37°28' E 025°20'0 0.0
2015-Apr-11 21:33N 37°28' E 025°20'0 0.0
2015-Apr-11 20:33N 37°28' E 025°20'0 0.0
2015-Apr-11 19:33N 37°28' E 025°20'0 0.0
2015-Apr-11 18:33N 37°28' E 025°20'0 0.0
2015-Apr-11 17:33N 37°28' E 025°20'0 0.0
2015-Apr-11 16:33N 37°28' E 025°20'0 0.0
2015-Apr-11 15:33N 37°28' E 025°20'0 0.0
2015-Apr-11 14:33N 37°28' E 025°20'0 0.0
2015-Apr-11 13:34N 37°28' E 025°20'0 0.0
2015-Apr-11 12:33N 37°28' E 025°20'0 0.0
2015-Apr-11 11:33N 37°28' E 025°20'0 0.0
2015-Apr-11 10:33N 37°28' E 025°20'0 0.0
2015-Apr-11 09:33N 37°28' E 025°20'0 0.0
2015-Apr-11 08:34N 37°28' E 025°20'0 0.0
2015-Apr-11 07:34N 37°28' E 025°20'0 0.0
2015-Apr-11 06:33N 37°28' E 025°20'0 0.0
2015-Apr-11 05:34N 37°28' E 025°20'0 0.0
2015-Apr-11 04:33N 37°28' E 025°20'0 0.0
2015-Apr-11 03:33N 37°28' E 025°20'0 0.0
2015-Apr-11 02:33N 37°28' E 025°20'0 0.0
2015-Apr-11 01:33N 37°28' E 025°20'0 0.0
2015-Apr-11 00:33N 37°28' E 025°20'0 0.0
2015-Apr-10 23:33N 37°28' E 025°20'0 0.0
2015-Apr-10 22:33N 37°28' E 025°20'0 0.0
2015-Apr-10 21:32N 37°28' E 025°20'0 0.0
2015-Apr-10 20:33N 37°28' E 025°20'0 0.0
2015-Apr-10 19:33N 37°28' E 025°20'0 0.0
2015-Apr-10 18:32N 37°28' E 025°20'0 0.0
2015-Apr-10 17:33N 37°28' E 025°20'0 0.0
2015-Apr-10 16:33N 37°28' E 025°20'0 0.0
2015-Apr-10 15:33N 37°28' E 025°20'0 0.0
2015-Apr-10 14:33N 37°28' E 025°20'0 0.0
2015-Apr-10 13:33N 37°28' E 025°20'0 0.0
2015-Apr-10 12:33N 37°28' E 025°20'0 0.0
2015-Apr-10 11:33N 37°28' E 025°20'0 0.0
2015-Apr-10 10:33N 37°28' E 025°20'0 0.0
2015-Apr-10 09:33N 37°28' E 025°20'0 0.0
2015-Apr-10 08:33N 37°28' E 025°20'0 0.0
2015-Apr-10 07:33N 37°28' E 025°20'0 0.0
2015-Apr-10 06:33N 37°28' E 025°20'0 0.0
2015-Apr-10 05:33N 37°28' E 025°20'0 0.0
2015-Apr-10 04:33N 37°28' E 025°20'0 0.0
2015-Apr-10 03:33N 37°28' E 025°20'0 0.0
2015-Apr-10 02:33N 37°28' E 025°20'0 0.0
2015-Apr-10 01:33N 37°28' E 025°20'0 0.0
2015-Apr-10 00:33N 37°28' E 025°20'0 0.0
2015-Apr-09 23:33N 37°28' E 025°20'0 0.0
2015-Apr-09 22:33N 37°28' E 025°20'0 0.0
2015-Apr-09 21:33N 37°28' E 025°20'0 0.0
2015-Apr-09 20:32N 37°28' E 025°20'0 0.0
2015-Apr-09 19:33N 37°28' E 025°20'0 0.0
2015-Apr-09 18:33N 37°28' E 025°20'0 0.0
2015-Apr-09 17:33N 37°28' E 025°20'0 0.0
2015-Apr-09 16:33N 37°28' E 025°20'0 0.0
2015-Apr-09 15:33N 37°28' E 025°20'0 0.0
2015-Apr-09 14:33N 37°28' E 025°20'0 0.0
2015-Apr-09 13:33N 37°28' E 025°20'0 0.0
2015-Apr-09 12:33N 37°28' E 025°20'0 0.0
2015-Apr-09 11:33N 37°28' E 025°20'0 0.0
2015-Apr-09 10:33N 37°28' E 025°20'0 0.0
2015-Apr-09 09:33N 37°28' E 025°20'0 0.0
2015-Apr-09 08:33N 37°28' E 025°20'5 4.7
2015-Apr-09 07:33N 37°23' E 025°17'3 2.6
2015-Apr-09 06:33N 37°22' E 025°20'5 4.9
2015-Apr-09 05:33N 37°21' E 025°14'6 6.2
2015-Apr-09 04:33N 37°27' E 025°13'5 5.5
2015-Apr-09 03:33N 37°28' E 025°20'0 0.0
2015-Apr-09 02:33N 37°28' E 025°20'0 0.0
2015-Apr-09 01:33N 37°28' E 025°20'0 0.0
2015-Apr-09 00:34N 37°28' E 025°20'0 0.0
2015-Apr-08 23:34N 37°28' E 025°20'0 0.0
2015-Apr-08 22:34N 37°28' E 025°20'0 0.0
2015-Apr-08 21:32N 37°28' E 025°20'0 0.0
2015-Apr-08 20:34N 37°28' E 025°20'0 0.0
2015-Apr-08 19:33N 37°28' E 025°20'0 0.0
2015-Apr-08 18:34N 37°28' E 025°20'0 0.0
2015-Apr-08 17:34N 37°28' E 025°20'0 0.0
2015-Apr-08 16:34N 37°28' E 025°20'0 0.0
2015-Apr-08 15:34N 37°28' E 025°20'0 0.0
2015-Apr-08 14:34N 37°28' E 025°20'0 0.0
2015-Apr-08 13:34N 37°28' E 025°20'0 0.0
2015-Apr-08 12:34N 37°28' E 025°20'0 0.0
2015-Apr-08 11:34N 37°28' E 025°20'0 0.0
2015-Apr-08 10:33N 37°28' E 025°20'0 0.0
2015-Apr-08 09:33N 37°28' E 025°20'0 0.0
2015-Apr-08 08:33N 37°28' E 025°20'0 0.0
2015-Apr-08 07:33N 37°28' E 025°20'0 0.0
2015-Apr-08 06:33N 37°28' E 025°20'0 0.0
2015-Apr-08 05:33N 37°28' E 025°20'0 0.0
2015-Apr-08 04:33N 37°28' E 025°20'0 0.0
2015-Apr-08 03:33N 37°28' E 025°20'0 0.0
2015-Apr-08 02:33N 37°28' E 025°20'  

Dump ship's entire track history